Falcon AFB, Colorado
Current Conditions -  °F | °C
As of 4:54 PM on Saturday 25 Oct 2014 (Local Time) from KCOS Reporting Station
Clear Clear  
Wind Chill: 75°   Ceiling: Unl
Heat Index: 75°   Visibility: 10mi
Dew Point: 20°   Wind: 15mph
Humidity: 13%   Direction: 170°S
Pressure: 30.15"   Gusts: NA
Location:  38.8334°N, 104.82°W
Report Text: KCOS 252254Z 17013KT 10SM CLR 24/M07 A3015 RMK AO2 SLP134 T02391067
Loading
Personal Weather Stations






























Interactive Weather Map
Tropical Storm Tracking
New forecast layout! Learn more

10-Day Weather Forecast

Advertisements
Track Severe Weather on mobile